sensor_id;sensor_type;location;lat;lon;timestamp;P1;durP1;ratioP1;P2;durP2;ratioP2
55655;SDS011;41530;52.382;5.270;2024-03-06T00:01:57;3.58;;;2.80;;
55655;SDS011;41530;52.382;5.270;2024-03-06T00:04:24;4.68;;;3.17;;
55655;SDS011;41530;52.382;5.270;2024-03-06T00:06:51;5.32;;;3.33;;
55655;SDS011;41530;52.382;5.270;2024-03-06T00:09:19;4.82;;;3.13;;
55655;SDS011;41530;52.382;5.270;2024-03-06T00:11:46;3.72;;;2.88;;
55655;SDS011;41530;52.382;5.270;2024-03-06T00:14:13;4.50;;;3.28;;
55655;SDS011;41530;52.382;5.270;2024-03-06T00:16:39;4.45;;;2.92;;
55655;SDS011;41530;52.382;5.270;2024-03-06T00:19:06;6.43;;;3.20;;
55655;SDS011;41530;52.382;5.270;2024-03-06T00:21:33;3.30;;;2.72;;
55655;SDS011;41530;52.382;5.270;2024-03-06T00:24:00;4.97;;;3.30;;
55655;SDS011;41530;52.382;5.270;2024-03-06T00:26:27;3.42;;;2.70;;
55655;SDS011;41530;52.382;5.270;2024-03-06T00:28:53;5.45;;;3.30;;
55655;SDS011;41530;52.382;5.270;2024-03-06T00:31:20;4.03;;;2.95;;
55655;SDS011;41530;52.382;5.270;2024-03-06T00:33:47;3.97;;;3.00;;
55655;SDS011;41530;52.382;5.270;2024-03-06T00:36:14;4.68;;;3.30;;
55655;SDS011;41530;52.382;5.270;2024-03-06T00:38:41;4.15;;;3.10;;
55655;SDS011;41530;52.382;5.270;2024-03-06T00:41:08;4.50;;;3.40;;
55655;SDS011;41530;52.382;5.270;2024-03-06T00:43:35;6.97;;;3.13;;
55655;SDS011;41530;52.382;5.270;2024-03-06T00:46:01;3.42;;;3.03;;
55655;SDS011;41530;52.382;5.270;2024-03-06T00:48:28;4.78;;;3.47;;
55655;SDS011;41530;52.382;5.270;2024-03-06T00:50:55;5.32;;;3.60;;
55655;SDS011;41530;52.382;5.270;2024-03-06T00:53:21;4.97;;;3.55;;
55655;SDS011;41530;52.382;5.270;2024-03-06T00:55:48;5.63;;;3.72;;
55655;SDS011;41530;52.382;5.270;2024-03-06T00:58:15;7.35;;;3.60;;
55655;SDS011;41530;52.382;5.270;2024-03-06T01:00:41;6.35;;;4.25;;
55655;SDS011;41530;52.382;5.270;2024-03-06T01:03:08;6.03;;;3.90;;
55655;SDS011;41530;52.382;5.270;2024-03-06T01:05:35;5.60;;;3.83;;
55655;SDS011;41530;52.382;5.270;2024-03-06T01:08:04;5.78;;;4.20;;
55655;SDS011;41530;52.382;5.270;2024-03-06T01:10:31;7.15;;;4.38;;
55655;SDS011;41530;52.382;5.270;2024-03-06T01:12:58;6.65;;;4.30;;
55655;SDS011;41530;52.382;5.270;2024-03-06T01:15:25;6.47;;;4.57;;
55655;SDS011;41530;52.382;5.270;2024-03-06T01:17:52;6.53;;;4.50;;
55655;SDS011;41530;52.382;5.270;2024-03-06T01:20:21;6.05;;;4.22;;
55655;SDS011;41530;52.382;5.270;2024-03-06T01:22:47;5.78;;;4.30;;
55655;SDS011;41530;52.382;5.270;2024-03-06T01:25:14;6.82;;;4.90;;
55655;SDS011;41530;52.382;5.270;2024-03-06T01:27:42;6.38;;;4.55;;
55655;SDS011;41530;52.382;5.270;2024-03-06T01:30:09;6.65;;;4.30;;
55655;SDS011;41530;52.382;5.270;2024-03-06T01:32:36;14.98;;;5.05;;
55655;SDS011;41530;52.382;5.270;2024-03-06T01:35:03;6.30;;;4.13;;
55655;SDS011;41530;52.382;5.270;2024-03-06T01:37:31;6.40;;;4.57;;
55655;SDS011;41530;52.382;5.270;2024-03-06T01:39:58;6.28;;;4.70;;
55655;SDS011;41530;52.382;5.270;2024-03-06T01:42:33;6.35;;;4.68;;
55655;SDS011;41530;52.382;5.270;2024-03-06T01:45:01;6.28;;;4.75;;
55655;SDS011;41530;52.382;5.270;2024-03-06T01:47:28;6.75;;;4.53;;
55655;SDS011;41530;52.382;5.270;2024-03-06T01:49:55;6.05;;;4.30;;
55655;SDS011;41530;52.382;5.270;2024-03-06T01:52:22;7.05;;;4.90;;
55655;SDS011;41530;52.382;5.270;2024-03-06T01:54:49;7.50;;;5.07;;
55655;SDS011;41530;52.382;5.270;2024-03-06T01:57:17;7.13;;;4.78;;
55655;SDS011;41530;52.382;5.270;2024-03-06T01:59:46;7.45;;;5.05;;
55655;SDS011;41530;52.382;5.270;2024-03-06T02:02:13;6.00;;;4.70;;
55655;SDS011;41530;52.382;5.270;2024-03-06T02:04:40;7.47;;;5.30;;
55655;SDS011;41530;52.382;5.270;2024-03-06T02:07:08;8.38;;;5.18;;
55655;SDS011;41530;52.382;5.270;2024-03-06T02:09:37;7.13;;;5.07;;
55655;SDS011;41530;52.382;5.270;2024-03-06T02:12:05;6.93;;;5.13;;
55655;SDS011;41530;52.382;5.270;2024-03-06T02:14:36;7.50;;;5.30;;
55655;SDS011;41530;52.382;5.270;2024-03-06T02:17:03;7.25;;;4.93;;
55655;SDS011;41530;52.382;5.270;2024-03-06T02:22:07;7.93;;;4.93;;
55655;SDS011;41530;52.382;5.270;2024-03-06T02:24:34;7.03;;;5.10;;
55655;SDS011;41530;52.382;5.270;2024-03-06T02:27:03;6.55;;;5.13;;
55655;SDS011;41530;52.382;5.270;2024-03-06T02:29:36;9.27;;;5.05;;
55655;SDS011;41530;52.382;5.270;2024-03-06T02:32:04;7.32;;;5.47;;
55655;SDS011;41530;52.382;5.270;2024-03-06T02:34:35;7.55;;;5.45;;
55655;SDS011;41530;52.382;5.270;2024-03-06T02:37:04;6.80;;;5.32;;
55655;SDS011;41530;52.382;5.270;2024-03-06T02:39:35;8.23;;;5.50;;
55655;SDS011;41530;52.382;5.270;2024-03-06T02:42:03;7.70;;;5.18;;
55655;SDS011;41530;52.382;5.270;2024-03-06T02:44:31;7.53;;;5.18;;
55655;SDS011;41530;52.382;5.270;2024-03-06T02:46:58;6.35;;;5.13;;
55655;SDS011;41530;52.382;5.270;2024-03-06T02:49:24;8.05;;;5.90;;
55655;SDS011;41530;52.382;5.270;2024-03-06T02:51:52;10.63;;;5.70;;
55655;SDS011;41530;52.382;5.270;2024-03-06T02:54:18;6.28;;;4.88;;
55655;SDS011;41530;52.382;5.270;2024-03-06T02:56:45;7.10;;;5.20;;
55655;SDS011;41530;52.382;5.270;2024-03-06T02:59:12;6.60;;;5.03;;
55655;SDS011;41530;52.382;5.270;2024-03-06T03:01:40;7.53;;;4.70;;
55655;SDS011;41530;52.382;5.270;2024-03-06T03:04:06;8.60;;;5.50;;
55655;SDS011;41530;52.382;5.270;2024-03-06T03:06:33;7.47;;;5.50;;
55655;SDS011;41530;52.382;5.270;2024-03-06T03:09:01;6.53;;;5.15;;
55655;SDS011;41530;52.382;5.270;2024-03-06T03:11:29;7.45;;;5.32;;
55655;SDS011;41530;52.382;5.270;2024-03-06T03:13:56;8.30;;;5.35;;
55655;SDS011;41530;52.382;5.270;2024-03-06T03:16:23;6.72;;;5.25;;
55655;SDS011;41530;52.382;5.270;2024-03-06T03:18:50;6.97;;;5.03;;
55655;SDS011;41530;52.382;5.270;2024-03-06T03:21:17;7.55;;;5.15;;
55655;SDS011;41530;52.382;5.270;2024-03-06T03:23:44;8.23;;;5.28;;
55655;SDS011;41530;52.382;5.270;2024-03-06T03:26:10;5.82;;;4.70;;
55655;SDS011;41530;52.382;5.270;2024-03-06T03:28:40;6.22;;;4.80;;
55655;SDS011;41530;52.382;5.270;2024-03-06T03:31:07;6.32;;;4.78;;
55655;SDS011;41530;52.382;5.270;2024-03-06T03:33:35;7.47;;;4.97;;
55655;SDS011;41530;52.382;5.270;2024-03-06T03:36:05;6.40;;;4.82;;
55655;SDS011;41530;52.382;5.270;2024-03-06T03:38:36;6.65;;;4.70;;
55655;SDS011;41530;52.382;5.270;2024-03-06T03:41:10;7.10;;;4.90;;
55655;SDS011;41530;52.382;5.270;2024-03-06T03:43:43;6.57;;;4.47;;
55655;SDS011;41530;52.382;5.270;2024-03-06T03:46:09;6.45;;;4.68;;
55655;SDS011;41530;52.382;5.270;2024-03-06T03:48:38;6.93;;;5.03;;
55655;SDS011;41530;52.382;5.270;2024-03-06T03:51:05;6.45;;;5.13;;
55655;SDS011;41530;52.382;5.270;2024-03-06T03:53:34;8.43;;;5.18;;
55655;SDS011;41530;52.382;5.270;2024-03-06T03:56:01;6.72;;;4.60;;
55655;SDS011;41530;52.382;5.270;2024-03-06T03:58:28;7.47;;;4.60;;
55655;SDS011;41530;52.382;5.270;2024-03-06T04:00:55;5.68;;;4.35;;
55655;SDS011;41530;52.382;5.270;2024-03-06T04:03:22;8.55;;;5.20;;
55655;SDS011;41530;52.382;5.270;2024-03-06T04:05:50;5.75;;;4.32;;
55655;SDS011;41530;52.382;5.270;2024-03-06T04:08:17;6.13;;;4.70;;
55655;SDS011;41530;52.382;5.270;2024-03-06T04:10:44;6.32;;;4.72;;
55655;SDS011;41530;52.382;5.270;2024-03-06T04:13:12;6.40;;;4.30;;
55655;SDS011;41530;52.382;5.270;2024-03-06T04:15:39;5.95;;;4.60;;
55655;SDS011;41530;52.382;5.270;2024-03-06T04:18:06;5.57;;;4.32;;
55655;SDS011;41530;52.382;5.270;2024-03-06T04:20:33;6.00;;;4.43;;
55655;SDS011;41530;52.382;5.270;2024-03-06T04:23:00;5.88;;;4.38;;
55655;SDS011;41530;52.382;5.270;2024-03-06T04:25:27;6.18;;;4.30;;
55655;SDS011;41530;52.382;5.270;2024-03-06T04:27:54;6.50;;;4.38;;
55655;SDS011;41530;52.382;5.270;2024-03-06T04:30:21;7.53;;;4.60;;
55655;SDS011;41530;52.382;5.270;2024-03-06T04:32:47;5.30;;;4.18;;
55655;SDS011;41530;52.382;5.270;2024-03-06T04:35:15;6.47;;;4.78;;
55655;SDS011;41530;52.382;5.270;2024-03-06T04:37:42;5.63;;;4.10;;
55655;SDS011;41530;52.382;5.270;2024-03-06T04:40:10;6.20;;;4.00;;
55655;SDS011;41530;52.382;5.270;2024-03-06T04:42:40;5.18;;;4.20;;
55655;SDS011;41530;52.382;5.270;2024-03-06T04:45:10;7.03;;;4.63;;
55655;SDS011;41530;52.382;5.270;2024-03-06T04:47:41;5.97;;;4.13;;
55655;SDS011;41530;52.382;5.270;2024-03-06T04:50:08;6.22;;;4.30;;
55655;SDS011;41530;52.382;5.270;2024-03-06T04:52:37;5.88;;;4.22;;
55655;SDS011;41530;52.382;5.270;2024-03-06T04:55:05;6.40;;;4.40;;
55655;SDS011;41530;52.382;5.270;2024-03-06T04:57:34;5.97;;;4.30;;
55655;SDS011;41530;52.382;5.270;2024-03-06T05:00:00;5.28;;;3.88;;
55655;SDS011;41530;52.382;5.270;2024-03-06T05:02:32;5.30;;;3.60;;
55655;SDS011;41530;52.382;5.270;2024-03-06T05:05:18;6.07;;;4.18;;
55655;SDS011;41530;52.382;5.270;2024-03-06T05:08:02;7.40;;;4.22;;
55655;SDS011;41530;52.382;5.270;2024-03-06T05:10:46;5.28;;;3.92;;
55655;SDS011;41530;52.382;5.270;2024-03-06T05:13:30;5.20;;;3.67;;
55655;SDS011;41530;52.382;5.270;2024-03-06T05:16:15;6.65;;;4.28;;
55655;SDS011;41530;52.382;5.270;2024-03-06T05:18:59;6.10;;;3.90;;
55655;SDS011;41530;52.382;5.270;2024-03-06T05:21:43;4.15;;;3.45;;
55655;SDS011;41530;52.382;5.270;2024-03-06T05:24:27;5.95;;;3.97;;
55655;SDS011;41530;52.382;5.270;2024-03-06T05:27:14;6.15;;;4.18;;
55655;SDS011;41530;52.382;5.270;2024-03-06T05:30:00;5.15;;;4.00;;
55655;SDS011;41530;52.382;5.270;2024-03-06T05:32:45;4.70;;;3.97;;
55655;SDS011;41530;52.382;5.270;2024-03-06T05:35:30;4.57;;;3.90;;
55655;SDS011;41530;52.382;5.270;2024-03-06T05:38:14;5.13;;;3.75;;
55655;SDS011;41530;52.382;5.270;2024-03-06T05:40:58;5.28;;;3.83;;
55655;SDS011;41530;52.382;5.270;2024-03-06T05:43:45;7.13;;;3.88;;
55655;SDS011;41530;52.382;5.270;2024-03-06T05:46:29;4.93;;;3.60;;
55655;SDS011;41530;52.382;5.270;2024-03-06T05:49:14;4.15;;;3.25;;
55655;SDS011;41530;52.382;5.270;2024-03-06T05:51:58;4.82;;;3.75;;
55655;SDS011;41530;52.382;5.270;2024-03-06T05:54:42;4.60;;;3.50;;
55655;SDS011;41530;52.382;5.270;2024-03-06T05:57:26;4.85;;;3.60;;
55655;SDS011;41530;52.382;5.270;2024-03-06T06:00:13;4.75;;;3.42;;
55655;SDS011;41530;52.382;5.270;2024-03-06T06:02:40;4.45;;;3.60;;
55655;SDS011;41530;52.382;5.270;2024-03-06T06:05:07;4.25;;;3.40;;
55655;SDS011;41530;52.382;5.270;2024-03-06T06:07:49;5.43;;;3.83;;
55655;SDS011;41530;52.382;5.270;2024-03-06T06:10:16;5.22;;;3.60;;
55655;SDS011;41530;52.382;5.270;2024-03-06T06:12:47;4.15;;;3.40;;
55655;SDS011;41530;52.382;5.270;2024-03-06T06:15:14;6.03;;;3.80;;
55655;SDS011;41530;52.382;5.270;2024-03-06T06:17:41;7.00;;;4.00;;
55655;SDS011;41530;52.382;5.270;2024-03-06T06:20:11;4.63;;;3.33;;
55655;SDS011;41530;52.382;5.270;2024-03-06T06:22:42;4.05;;;3.03;;
55655;SDS011;41530;52.382;5.270;2024-03-06T06:25:09;5.28;;;3.20;;
55655;SDS011;41530;52.382;5.270;2024-03-06T06:27:37;4.32;;;3.47;;
55655;SDS011;41530;52.382;5.270;2024-03-06T06:30:05;5.07;;;3.78;;
55655;SDS011;41530;52.382;5.270;2024-03-06T06:32:33;3.75;;;3.15;;
55655;SDS011;41530;52.382;5.270;2024-03-06T06:35:01;5.93;;;3.50;;
55655;SDS011;41530;52.382;5.270;2024-03-06T06:37:27;5.53;;;3.60;;
55655;SDS011;41530;52.382;5.270;2024-03-06T06:39:54;3.90;;;3.08;;
55655;SDS011;41530;52.382;5.270;2024-03-06T06:42:21;4.88;;;3.35;;
55655;SDS011;41530;52.382;5.270;2024-03-06T06:44:47;6.45;;;3.72;;
55655;SDS011;41530;52.382;5.270;2024-03-06T06:47:14;4.43;;;3.35;;
55655;SDS011;41530;52.382;5.270;2024-03-06T06:49:40;6.30;;;3.10;;
55655;SDS011;41530;52.382;5.270;2024-03-06T06:52:07;5.70;;;4.10;;
55655;SDS011;41530;52.382;5.270;2024-03-06T06:54:34;4.32;;;3.20;;
55655;SDS011;41530;52.382;5.270;2024-03-06T06:57:01;4.53;;;3.53;;
55655;SDS011;41530;52.382;5.270;2024-03-06T06:59:29;4.60;;;3.42;;
55655;SDS011;41530;52.382;5.270;2024-03-06T07:01:56;5.55;;;3.80;;
55655;SDS011;41530;52.382;5.270;2024-03-06T07:04:23;7.85;;;4.07;;
55655;SDS011;41530;52.382;5.270;2024-03-06T07:06:51;5.90;;;4.07;;
55655;SDS011;41530;52.382;5.270;2024-03-06T07:09:18;5.30;;;4.00;;
55655;SDS011;41530;52.382;5.270;2024-03-06T07:11:45;5.95;;;3.97;;
55655;SDS011;41530;52.382;5.270;2024-03-06T07:14:12;5.93;;;3.88;;
55655;SDS011;41530;52.382;5.270;2024-03-06T07:16:43;5.80;;;4.57;;
55655;SDS011;41530;52.382;5.270;2024-03-06T07:19:10;6.25;;;4.70;;
55655;SDS011;41530;52.382;5.270;2024-03-06T07:21:37;7.22;;;4.80;;
55655;SDS011;41530;52.382;5.270;2024-03-06T07:24:04;8.63;;;6.70;;
55655;SDS011;41530;52.382;5.270;2024-03-06T07:26:32;8.07;;;6.28;;
55655;SDS011;41530;52.382;5.270;2024-03-06T07:28:59;7.57;;;5.30;;
55655;SDS011;41530;52.382;5.270;2024-03-06T07:31:27;10.63;;;5.85;;
55655;SDS011;41530;52.382;5.270;2024-03-06T07:33:53;7.85;;;5.57;;
55655;SDS011;41530;52.382;5.270;2024-03-06T07:36:20;8.88;;;5.25;;
55655;SDS011;41530;52.382;5.270;2024-03-06T07:38:47;8.25;;;5.63;;
55655;SDS011;41530;52.382;5.270;2024-03-06T07:41:16;7.63;;;5.75;;
55655;SDS011;41530;52.382;5.270;2024-03-06T07:43:43;6.72;;;5.00;;
55655;SDS011;41530;52.382;5.270;2024-03-06T07:46:09;8.27;;;4.75;;
55655;SDS011;41530;52.382;5.270;2024-03-06T07:48:37;6.22;;;3.90;;
55655;SDS011;41530;52.382;5.270;2024-03-06T07:51:05;7.28;;;4.28;;
55655;SDS011;41530;52.382;5.270;2024-03-06T07:53:32;6.35;;;4.30;;
55655;SDS011;41530;52.382;5.270;2024-03-06T07:55:59;5.05;;;4.03;;
55655;SDS011;41530;52.382;5.270;2024-03-06T07:58:25;5.63;;;3.95;;
55655;SDS011;41530;52.382;5.270;2024-03-06T08:00:52;5.45;;;4.00;;
55655;SDS011;41530;52.382;5.270;2024-03-06T08:03:23;4.13;;;3.28;;
55655;SDS011;41530;52.382;5.270;2024-03-06T08:05:51;4.68;;;3.60;;
55655;SDS011;41530;52.382;5.270;2024-03-06T08:08:21;4.97;;;3.15;;
55655;SDS011;41530;52.382;5.270;2024-03-06T08:10:49;4.97;;;3.03;;
55655;SDS011;41530;52.382;5.270;2024-03-06T08:13:16;4.35;;;3.17;;
55655;SDS011;41530;52.382;5.270;2024-03-06T08:15:44;6.47;;;3.15;;
55655;SDS011;41530;52.382;5.270;2024-03-06T08:18:11;4.30;;;2.90;;
55655;SDS011;41530;52.382;5.270;2024-03-06T08:20:42;3.65;;;2.83;;
55655;SDS011;41530;52.382;5.270;2024-03-06T08:23:09;5.13;;;2.95;;
55655;SDS011;41530;52.382;5.270;2024-03-06T08:25:36;4.30;;;2.72;;
55655;SDS011;41530;52.382;5.270;2024-03-06T08:28:04;3.83;;;2.90;;
55655;SDS011;41530;52.382;5.270;2024-03-06T08:30:32;4.13;;;3.17;;
55655;SDS011;41530;52.382;5.270;2024-03-06T08:32:58;6.93;;;4.78;;
55655;SDS011;41530;52.382;5.270;2024-03-06T08:35:26;4.22;;;3.50;;
55655;SDS011;41530;52.382;5.270;2024-03-06T08:37:53;5.18;;;3.60;;
55655;SDS011;41530;52.382;5.270;2024-03-06T08:40:19;5.50;;;4.10;;
55655;SDS011;41530;52.382;5.270;2024-03-06T08:42:47;5.70;;;4.55;;
55655;SDS011;41530;52.382;5.270;2024-03-06T08:45:15;5.53;;;4.43;;
55655;SDS011;41530;52.382;5.270;2024-03-06T08:47:44;10.10;;;7.57;;
55655;SDS011;41530;52.382;5.270;2024-03-06T08:50:11;6.65;;;4.93;;
55655;SDS011;41530;52.382;5.270;2024-03-06T08:52:39;10.90;;;8.68;;
55655;SDS011;41530;52.382;5.270;2024-03-06T08:55:08;11.25;;;7.63;;
55655;SDS011;41530;52.382;5.270;2024-03-06T08:57:36;9.45;;;6.50;;
55655;SDS011;41530;52.382;5.270;2024-03-06T09:00:04;15.15;;;10.70;;
55655;SDS011;41530;52.382;5.270;2024-03-06T09:02:34;9.88;;;6.57;;
55655;SDS011;41530;52.382;5.270;2024-03-06T09:05:01;7.10;;;4.88;;
55655;SDS011;41530;52.382;5.270;2024-03-06T09:07:31;7.10;;;5.78;;
55655;SDS011;41530;52.382;5.270;2024-03-06T09:10:00;13.27;;;10.55;;
55655;SDS011;41530;52.382;5.270;2024-03-06T09:12:27;8.70;;;6.32;;
55655;SDS011;41530;52.382;5.270;2024-03-06T09:14:54;8.05;;;5.40;;
55655;SDS011;41530;52.382;5.270;2024-03-06T09:17:20;8.10;;;5.65;;
55655;SDS011;41530;52.382;5.270;2024-03-06T09:19:47;12.88;;;8.45;;
55655;SDS011;41530;52.382;5.270;2024-03-06T09:22:33;11.32;;;6.60;;
55655;SDS011;41530;52.382;5.270;2024-03-06T09:24:59;10.55;;;7.68;;
55655;SDS011;41530;52.382;5.270;2024-03-06T09:27:26;9.90;;;7.45;;
55655;SDS011;41530;52.382;5.270;2024-03-06T09:29:53;12.80;;;4.85;;
55655;SDS011;41530;52.382;5.270;2024-03-06T09:32:20;7.57;;;5.50;;
55655;SDS011;41530;52.382;5.270;2024-03-06T09:34:48;16.27;;;10.80;;
55655;SDS011;41530;52.382;5.270;2024-03-06T09:37:16;9.25;;;5.35;;
55655;SDS011;41530;52.382;5.270;2024-03-06T09:39:42;5.30;;;4.75;;
55655;SDS011;41530;52.382;5.270;2024-03-06T09:42:09;6.65;;;5.10;;
55655;SDS011;41530;52.382;5.270;2024-03-06T09:44:36;6.10;;;3.40;;
55655;SDS011;41530;52.382;5.270;2024-03-06T09:47:03;14.20;;;10.15;;
55655;SDS011;41530;52.382;5.270;2024-03-06T09:49:32;13.40;;;10.05;;
55655;SDS011;41530;52.382;5.270;2024-03-06T09:52:01;4.45;;;3.30;;
55655;SDS011;41530;52.382;5.270;2024-03-06T09:54:30;6.03;;;4.47;;
55655;SDS011;41530;52.382;5.270;2024-03-06T09:56:57;7.32;;;5.28;;
55655;SDS011;41530;52.382;5.270;2024-03-06T09:59:25;6.10;;;3.25;;
55655;SDS011;41530;52.382;5.270;2024-03-06T10:01:54;14.30;;;10.77;;
55655;SDS011;41530;52.382;5.270;2024-03-06T10:04:23;10.02;;;7.07;;
55655;SDS011;41530;52.382;5.270;2024-03-06T10:06:57;9.55;;;6.88;;
55655;SDS011;41530;52.382;5.270;2024-03-06T10:09:25;5.18;;;3.17;;
55655;SDS011;41530;52.382;5.270;2024-03-06T10:11:53;4.35;;;3.95;;
55655;SDS011;41530;52.382;5.270;2024-03-06T10:14:22;4.93;;;3.53;;
55655;SDS011;41530;52.382;5.270;2024-03-06T10:16:51;4.10;;;2.65;;
55655;SDS011;41530;52.382;5.270;2024-03-06T10:19:23;10.60;;;7.85;;
55655;SDS011;41530;52.382;5.270;2024-03-06T10:21:50;5.68;;;3.78;;
55655;SDS011;41530;52.382;5.270;2024-03-06T10:24:21;3.28;;;2.97;;
55655;SDS011;41530;52.382;5.270;2024-03-06T10:26:52;5.32;;;2.88;;
55655;SDS011;41530;52.382;5.270;2024-03-06T10:29:23;7.90;;;6.05;;
55655;SDS011;41530;52.382;5.270;2024-03-06T10:31:51;3.75;;;3.30;;
55655;SDS011;41530;52.382;5.270;2024-03-06T10:34:27;3.63;;;2.55;;
55655;SDS011;41530;52.382;5.270;2024-03-06T10:36:56;4.72;;;2.60;;
55655;SDS011;41530;52.382;5.270;2024-03-06T10:39:24;13.48;;;10.07;;
55655;SDS011;41530;52.382;5.270;2024-03-06T10:41:52;12.13;;;8.65;;
55655;SDS011;41530;52.382;5.270;2024-03-06T10:44:26;9.85;;;7.03;;
55655;SDS011;41530;52.382;5.270;2024-03-06T10:47:05;17.98;;;14.68;;
55655;SDS011;41530;52.382;5.270;2024-03-06T10:49:32;13.52;;;10.60;;
55655;SDS011;41530;52.382;5.270;2024-03-06T10:52:01;9.82;;;5.28;;
55655;SDS011;41530;52.382;5.270;2024-03-06T10:54:33;12.85;;;6.90;;
55655;SDS011;41530;52.382;5.270;2024-03-06T10:57:01;6.97;;;4.88;;
55655;SDS011;41530;52.382;5.270;2024-03-06T10:59:29;4.53;;;3.70;;
55655;SDS011;41530;52.382;5.270;2024-03-06T11:01:56;6.28;;;4.88;;
55655;SDS011;41530;52.382;5.270;2024-03-06T11:04:28;12.63;;;6.85;;
55655;SDS011;41530;52.382;5.270;2024-03-06T11:06:56;6.10;;;4.40;;
55655;SDS011;41530;52.382;5.270;2024-03-06T11:09:26;11.85;;;9.05;;
55655;SDS011;41530;52.382;5.270;2024-03-06T11:11:53;4.45;;;2.78;;
55655;SDS011;41530;52.382;5.270;2024-03-06T11:14:23;7.20;;;5.60;;
55655;SDS011;41530;52.382;5.270;2024-03-06T11:19:31;7.25;;;5.50;;
55655;SDS011;41530;52.382;5.270;2024-03-06T11:21:58;7.07;;;4.70;;
55655;SDS011;41530;52.382;5.270;2024-03-06T11:24:32;8.70;;;6.30;;
55655;SDS011;41530;52.382;5.270;2024-03-06T11:27:00;3.60;;;2.90;;
55655;SDS011;41530;52.382;5.270;2024-03-06T11:29:29;10.50;;;6.95;;
55655;SDS011;41530;52.382;5.270;2024-03-06T11:32:16;3.72;;;2.35;;
55655;SDS011;41530;52.382;5.270;2024-03-06T11:34:43;10.88;;;7.60;;
55655;SDS011;41530;52.382;5.270;2024-03-06T11:37:10;3.75;;;2.30;;
55655;SDS011;41530;52.382;5.270;2024-03-06T11:39:37;3.97;;;1.58;;
55655;SDS011;41530;52.382;5.270;2024-03-06T11:42:05;3.13;;;2.00;;
55655;SDS011;41530;52.382;5.270;2024-03-06T11:44:35;3.10;;;2.13;;
55655;SDS011;41530;52.382;5.270;2024-03-06T11:47:03;3.80;;;2.83;;
55655;SDS011;41530;52.382;5.270;2024-03-06T11:49:35;3.92;;;2.95;;
55655;SDS011;41530;52.382;5.270;2024-03-06T11:52:04;2.50;;;2.08;;
55655;SDS011;41530;52.382;5.270;2024-03-06T11:54:34;6.63;;;2.30;;
55655;SDS011;41530;52.382;5.270;2024-03-06T11:57:02;2.28;;;2.05;;
55655;SDS011;41530;52.382;5.270;2024-03-06T11:59:31;4.32;;;2.33;;
55655;SDS011;41530;52.382;5.270;2024-03-06T12:02:00;2.92;;;1.88;;
55655;SDS011;41530;52.382;5.270;2024-03-06T12:04:35;2.20;;;1.80;;
55655;SDS011;41530;52.382;5.270;2024-03-06T12:07:05;3.33;;;2.22;;
55655;SDS011;41530;52.382;5.270;2024-03-06T12:09:32;1.98;;;1.80;;
55655;SDS011;41530;52.382;5.270;2024-03-06T12:12:04;4.55;;;3.40;;
55655;SDS011;41530;52.382;5.270;2024-03-06T12:14:34;4.95;;;2.30;;
55655;SDS011;41530;52.382;5.270;2024-03-06T12:17:02;2.53;;;1.92;;
55655;SDS011;41530;52.382;5.270;2024-03-06T12:19:32;2.05;;;1.88;;
55655;SDS011;41530;52.382;5.270;2024-03-06T12:22:00;2.13;;;1.60;;
55655;SDS011;41530;52.382;5.270;2024-03-06T12:24:30;3.38;;;2.10;;
55655;SDS011;41530;52.382;5.270;2024-03-06T12:27:03;1.73;;;1.52;;
55655;SDS011;41530;52.382;5.270;2024-03-06T12:29:31;1.60;;;1.48;;
55655;SDS011;41530;52.382;5.270;2024-03-06T12:31:59;2.10;;;1.75;;
55655;SDS011;41530;52.382;5.270;2024-03-06T12:34:26;1.70;;;1.50;;
55655;SDS011;41530;52.382;5.270;2024-03-06T12:36:53;1.70;;;1.60;;
55655;SDS011;41530;52.382;5.270;2024-03-06T12:39:19;1.58;;;1.38;;
55655;SDS011;41530;52.382;5.270;2024-03-06T12:41:50;3.65;;;1.38;;
55655;SDS011;41530;52.382;5.270;2024-03-06T12:44:20;1.50;;;1.38;;
55655;SDS011;41530;52.382;5.270;2024-03-06T12:46:47;2.45;;;1.83;;
55655;SDS011;41530;52.382;5.270;2024-03-06T12:49:15;2.08;;;1.42;;
55655;SDS011;41530;52.382;5.270;2024-03-06T12:51:41;1.67;;;1.55;;
55655;SDS011;41530;52.382;5.270;2024-03-06T12:54:08;3.60;;;1.85;;
55655;SDS011;41530;52.382;5.270;2024-03-06T12:56:35;2.05;;;1.52;;
55655;SDS011;41530;52.382;5.270;2024-03-06T12:59:02;1.20;;;1.10;;
55655;SDS011;41530;52.382;5.270;2024-03-06T13:01:30;3.00;;;1.67;;
55655;SDS011;41530;52.382;5.270;2024-03-06T13:03:57;1.67;;;1.50;;
55655;SDS011;41530;52.382;5.270;2024-03-06T13:06:32;1.70;;;1.57;;
55655;SDS011;41530;52.382;5.270;2024-03-06T13:08:59;5.00;;;1.77;;
55655;SDS011;41530;52.382;5.270;2024-03-06T13:11:26;2.28;;;1.30;;
55655;SDS011;41530;52.382;5.270;2024-03-06T13:13:53;1.42;;;1.13;;
55655;SDS011;41530;52.382;5.270;2024-03-06T13:16:20;1.65;;;1.40;;
55655;SDS011;41530;52.382;5.270;2024-03-06T13:18:48;1.33;;;1.23;;
55655;SDS011;41530;52.382;5.270;2024-03-06T13:21:18;2.03;;;1.50;;
55655;SDS011;41530;52.382;5.270;2024-03-06T13:23:46;1.23;;;1.13;;
55655;SDS011;41530;52.382;5.270;2024-03-06T13:26:13;1.33;;;1.23;;
55655;SDS011;41530;52.382;5.270;2024-03-06T13:28:41;2.10;;;1.20;;
55655;SDS011;41530;52.382;5.270;2024-03-06T13:31:08;2.03;;;1.50;;
55655;SDS011;41530;52.382;5.270;2024-03-06T13:33:38;1.60;;;1.40;;
55655;SDS011;41530;52.382;5.270;2024-03-06T13:36:05;2.05;;;1.40;;
55655;SDS011;41530;52.382;5.270;2024-03-06T13:38:32;1.52;;;1.25;;
55655;SDS011;41530;52.382;5.270;2024-03-06T13:40:59;2.35;;;1.45;;
55655;SDS011;41530;52.382;5.270;2024-03-06T13:43:28;2.63;;;1.40;;
55655;SDS011;41530;52.382;5.270;2024-03-06T13:45:55;1.40;;;1.15;;
55655;SDS011;41530;52.382;5.270;2024-03-06T13:48:22;1.40;;;1.23;;
55655;SDS011;41530;52.382;5.270;2024-03-06T13:50:49;1.70;;;1.45;;
55655;SDS011;41530;52.382;5.270;2024-03-06T13:53:16;1.30;;;1.20;;
55655;SDS011;41530;52.382;5.270;2024-03-06T13:55:43;2.75;;;1.48;;
55655;SDS011;41530;52.382;5.270;2024-03-06T13:58:10;1.52;;;1.42;;
55655;SDS011;41530;52.382;5.270;2024-03-06T14:00:38;4.07;;;1.48;;
55655;SDS011;41530;52.382;5.270;2024-03-06T14:03:04;1.33;;;1.20;;
55655;SDS011;41530;52.382;5.270;2024-03-06T14:05:31;1.70;;;1.50;;
55655;SDS011;41530;52.382;5.270;2024-03-06T14:07:58;2.03;;;1.77;;
55655;SDS011;41530;52.382;5.270;2024-03-06T14:10:24;2.00;;;1.27;;
55655;SDS011;41530;52.382;5.270;2024-03-06T14:12:52;2.13;;;1.40;;
55655;SDS011;41530;52.382;5.270;2024-03-06T14:15:21;2.00;;;1.45;;
55655;SDS011;41530;52.382;5.270;2024-03-06T14:17:49;2.67;;;2.17;;
55655;SDS011;41530;52.382;5.270;2024-03-06T14:20:16;2.42;;;1.90;;
55655;SDS011;41530;52.382;5.270;2024-03-06T14:22:43;3.22;;;2.25;;
55655;SDS011;41530;52.382;5.270;2024-03-06T14:25:10;2.65;;;2.28;;
55655;SDS011;41530;52.382;5.270;2024-03-06T14:27:37;3.85;;;2.47;;
55655;SDS011;41530;52.382;5.270;2024-03-06T14:30:04;3.30;;;2.20;;
55655;SDS011;41530;52.382;5.270;2024-03-06T14:32:35;3.45;;;2.13;;
55655;SDS011;41530;52.382;5.270;2024-03-06T14:35:02;3.50;;;2.47;;
55655;SDS011;41530;52.382;5.270;2024-03-06T14:37:29;3.67;;;2.80;;
55655;SDS011;41530;52.382;5.270;2024-03-06T14:39:55;3.33;;;2.25;;
55655;SDS011;41530;52.382;5.270;2024-03-06T14:42:23;3.38;;;2.28;;
55655;SDS011;41530;52.382;5.270;2024-03-06T14:44:49;2.83;;;1.58;;
55655;SDS011;41530;52.382;5.270;2024-03-06T14:47:16;2.75;;;2.17;;
55655;SDS011;41530;52.382;5.270;2024-03-06T14:49:43;3.35;;;2.63;;
55655;SDS011;41530;52.382;5.270;2024-03-06T14:52:13;3.15;;;2.20;;
55655;SDS011;41530;52.382;5.270;2024-03-06T14:54:40;2.78;;;1.70;;
55655;SDS011;41530;52.382;5.270;2024-03-06T14:57:10;3.85;;;2.78;;
55655;SDS011;41530;52.382;5.270;2024-03-06T14:59:38;3.17;;;2.53;;
55655;SDS011;41530;52.382;5.270;2024-03-06T15:02:07;5.38;;;2.30;;